Pagrindinis puslapis
METAR-TAF:

METAR-TAF

Oro uostai :

Tarapoto, Peru

platuma: 06-27S, ilguma: 076-23W, Aukštis: 281 m

Dabartinis oras

Ataskaita buvo paskelbta 56 minutes, ne 13:00 UTC
Vėjas 6 kt iš Pietryčių
Temperatūra 26°C
Drėgmė 79%
Slėgis 1015 hPa
Matomumas 10 km arba daugiau
Išsisklaidę debesys ne aukštis 2000 ft
Su prošvaistėmis ne aukštis 8000 ft

METAR: SPST 171300Z 14006KT 9999 SCT020 BKN080 26/22 Q1015 RMK BIRD HAZARD RWY 17/35 PP000

Laikas: 08:56 (13:56 UTC)

Prognozė

Ataskaita buvo paskelbta 2 valandos ir 46 minutes, ne 11:10 UTC
Prognozė galioja nuo 17 metu 12 UTC su 18 metu 12 UTC
Vėjas 5 kt iš Rytų/Pietryčių
Matomumas 10 km arba daugiau
Išsisklaidę debesys ne aukštis 1500 ft
Su prošvaistėmis ne aukštis 8000 ft
Laikinai
nuo 17 metu 12 UTC su 17 metu 14 UTC
Matomumas: 3000 m
rūkana

TAF: SPST 171110Z 1712/1812 12005KT 9999 SCT015 BKN080 TX35/1719Z TN22/1811Z TEMPO 1712/1714 3000 BR

Orai ataskaitas ir orų prognozės (METAR, TAF).

turimą stotys yra geltonos ir raudonos taškus žemėlapyje.

Perkelti pele per norėdami pamatyti stoties vardą.

Tada spustelėkite, norėdami matyti oro stebėjimo ir prognozės.

Norėdami pakeisti žemėlapį: spustelėkite ant žalios mygtukų su juodo kryžiaus žemyn,; žalią mygtuką su brūkšneliu, jei norite nutolinti; arba žalių rodyklių gretimoms žemėlapius.


METAR-TAF: